Current Conditions
Scattered
Clouds



Pressure
1027.43 (hPa) - 30.34 (inHG)
Visibility

10.0 (miles) - 16.1 (km)
Temperature
61  °F
Temperature
54  °F
Dewpoint
77  %
 Humidity
Wind Speed
8  mph
7  kts
13  km/h
3.6  m/s
Wind Direction
N
45°
E
90°
135°
S
180°
225°
W
270°
315°
 230°

South West
Airport Data
KDEN
Denver International Airport
Metar :KDEN 211153Z 23007KT 10SM SCT120 BKN150 16/12 A3034 RMK AO2 SLP194 VIRGA 70047 T01610117 10161 20150 53002 $
Sun 21st July 05:53 am
Raw Metar Info
Raw METAR is the most common format in the world for the transmission of observational weather data. It is highly standardized through the International Civil Aviation Organization (ICAO), which allows it to be understood throughout most of the world.
API Info
Data Provided by
https://www.checkwx.com/weather/KDEN

Aviation Weather providing METAR, TAF, AIRMET, SIGMET and OUTLOOK Weather Reports
© Info
CSS/SVG/PHP scripts were developed by weather34 for use in the weather34 template © 2015-2024

Guide Info provided by Metar-Wikipedia